»·PEaware :: N786SC KVNY-KSNA

N786SC :: KVNY-KSNA

FLIGHT INFORMATION

Flight Status: Arrived
Operator: Privately registered:
United States
More flights under this callsign
Pilot: Jereme M. (20698)
Aircraft: CESSNA 172 SKYHAWK
(C172)
More flights by this aircraft type
Origin: KVNY Van Nuys
United States
Destination: KSNA John Wayne-Orange Co
United States
More flights between these airports :: More routes between these airports
Route:
File this flight plan on PilotEdge
Remarks: CAT10-2
Altitude:
(Current/Filed)
5,500ft
Speed:
(Current/Filed)
110kts
Departed: 07-Nov-18 03:06 PM
Arrived: 07-Nov-18 03:50 PM
Distance/Time
Traveled:
45nm/0:43
Distance/Time
To Go:
Arrived

Flight Plot

Page will automatically refresh every two minutes.


Map Options




Map Legend


Flown Route
Filed Route
Departure Airport
Arrival Airport
Navaid (VOR, NDB)
Fix

Horizontal Profiles

Position Reports

Time Latitude Longitude Heading Altitude Ground
Speed
07-Nov-18 14:37 34.205783 -118.491625 169 806ft 0kts
07-Nov-18 14:38 34.205783 -118.491625 169 806ft 0kts
07-Nov-18 14:39 34.205783 -118.491625 169 806ft 0kts
07-Nov-18 14:40 34.205783 -118.491625 169 806ft 0kts
07-Nov-18 14:41 34.205783 -118.491625 169 806ft 0kts
07-Nov-18 14:42 34.205783 -118.491625 169 806ft 0kts
07-Nov-18 14:43 34.205783 -118.491625 169 806ft 0kts
07-Nov-18 14:44 34.205783 -118.491625 169 806ft 0kts
07-Nov-18 14:45 34.205783 -118.491625 169 806ft 0kts
07-Nov-18 14:46 34.205783 -118.491625 169 806ft 0kts
07-Nov-18 14:47 34.205783 -118.491625 169 806ft 0kts
07-Nov-18 14:48 34.205783 -118.491625 169 806ft 0kts
07-Nov-18 14:49 34.205783 -118.491625 169 806ft 0kts
07-Nov-18 14:50 34.205783 -118.491625 169 806ft 0kts
07-Nov-18 14:51 34.205783 -118.491625 169 806ft 0kts
07-Nov-18 14:52 34.205783 -118.491625 169 806ft 0kts
07-Nov-18 14:53 34.205783 -118.491625 169 806ft 0kts
07-Nov-18 14:54 34.205783 -118.491625 169 806ft 0kts
07-Nov-18 14:55 34.205783 -118.491625 169 806ft 0kts
07-Nov-18 14:56 34.205783 -118.491625 169 806ft 0kts
07-Nov-18 14:57 34.205783 -118.491625 169 806ft 0kts
07-Nov-18 14:58 34.205783 -118.491625 169 806ft 0kts
07-Nov-18 14:59 34.205783 -118.491625 169 806ft 0kts
07-Nov-18 15:00 34.205783 -118.491625 169 806ft 0kts
07-Nov-18 15:01 34.205783 -118.491625 169 806ft 0kts
07-Nov-18 15:02 34.205783 -118.491625 169 806ft 0kts
07-Nov-18 15:03 34.206566 -118.491268 355 806ft 13kts
07-Nov-18 15:04 34.211941 -118.491744 355 806ft 23kts
07-Nov-18 15:05 34.218580 -118.492246 34 806ft 10kts
07-Nov-18 15:06 34.218644 -118.492179 44 806ft 0kts
07-Nov-18 15:07 34.218644 -118.492179 44 806ft 0kts
07-Nov-18 15:08 34.218386 -118.491208 163 806ft 12kts
07-Nov-18 15:09 34.199501 -118.489398 177 1212ft 90kts
07-Nov-18 15:10 34.188747 -118.511384 260 1977ft 93kts
07-Nov-18 15:11 34.184029 -118.543596 260 2491ft 105kts
07-Nov-18 15:12 34.179542 -118.574384 260 2607ft 107kts
07-Nov-18 15:13 34.173960 -118.612042 259 3235ft 93kts
07-Nov-18 15:14 34.171008 -118.637739 267 3733ft 93kts
07-Nov-18 15:15 34.183790 -118.662668 348 4324ft 94kts
07-Nov-18 15:16 34.205093 -118.663016 20 4811ft 92kts
07-Nov-18 15:17 34.222235 -118.641436 48 5393ft 90kts
07-Nov-18 15:18 34.243754 -118.609853 71 5495ft 111kts
07-Nov-18 15:19 34.236244 -118.583968 153 5479ft 110kts
07-Nov-18 15:20 34.207904 -118.570077 158 5478ft 110kts
07-Nov-18 15:21 34.179442 -118.556783 158 5478ft 110kts
07-Nov-18 15:22 34.150787 -118.545768 192 5469ft 110kts
07-Nov-18 15:23 34.153253 -118.570961 358 5425ft 111kts
07-Nov-18 15:24 34.157098 -118.545893 158 5384ft 111kts
07-Nov-18 15:25 34.127877 -118.536003 159 5383ft 110kts
07-Nov-18 15:26 34.101263 -118.522744 155 5486ft 104kts
07-Nov-18 15:27 34.073703 -118.507689 155 5489ft 111kts
07-Nov-18 15:28 34.045630 -118.492278 155 5489ft 111kts
07-Nov-18 15:29 34.018101 -118.477073 154 5489ft 111kts
07-Nov-18 15:30 33.989812 -118.461975 155 5489ft 111kts
07-Nov-18 15:31 33.961801 -118.447276 156 5489ft 111kts
07-Nov-18 15:32 33.935278 -118.433249 151 5488ft 111kts
07-Nov-18 15:33 33.914898 -118.415603 139 5488ft 111kts
07-Nov-18 15:34 33.892620 -118.392237 137 5489ft 111kts
07-Nov-18 15:35 33.869567 -118.367223 138 5488ft 111kts
07-Nov-18 15:36 33.847283 -118.343099 137 5488ft 111kts
07-Nov-18 15:37 33.824535 -118.317849 137 5488ft 111kts
07-Nov-18 15:38 33.801877 -118.292573 137 5488ft 111kts
07-Nov-18 15:39 33.779292 -118.267255 137 5488ft 111kts
07-Nov-18 15:40 33.756682 -118.241790 136 5488ft 111kts
07-Nov-18 15:41 33.734162 -118.216315 136 5488ft 111kts
07-Nov-18 15:42 33.720369 -118.183831 106 5486ft 111kts
07-Nov-18 15:43 33.713505 -118.148160 87 5484ft 111kts
07-Nov-18 15:44 33.714404 -118.110891 86 5484ft 111kts
07-Nov-18 15:45 33.716080 -118.072994 87 5240ft 120kts
07-Nov-18 15:46 33.717862 -118.033742 86 4549ft 115kts
07-Nov-18 15:47 33.718971 -117.995612 96 3848ft 115kts
07-Nov-18 15:48 33.715062 -117.957349 95 3150ft 117kts
07-Nov-18 15:49 33.714512 -117.919908 85 2274ft 116kts
07-Nov-18 15:50 33.713385 -117.882871 106 1356ft 103kts
07-Nov-18 15:51 33.701826 -117.857349 151 945ft 76kts
07-Nov-18 15:52 33.682637 -117.864387 207 106ft 62kts
07-Nov-18 15:53 33.674840 -117.868648 161 60ft 5kts
07-Nov-18 15:54 33.674663 -117.868582 162 60ft 0kts
07-Nov-18 15:55 33.674663 -117.868582 162 60ft 0kts
07-Nov-18 15:56 33.673710 -117.867263 124 60ft 12kts
07-Nov-18 15:57 33.672179 -117.867061 124 60ft 0kts
07-Nov-18 15:58 33.672179 -117.867061 124 60ft 0kts
07-Nov-18 15:59 33.672179 -117.867061 124 60ft 0kts
07-Nov-18 16:00 33.672179 -117.867061 124 60ft 0kts
07-Nov-18 16:01 33.672179 -117.867061 124 60ft 0kts
07-Nov-18 16:02 33.672179 -117.867061 124 60ft 0kts
07-Nov-18 16:03 33.672179 -117.867061 124 60ft 0kts

Navigation Log

Ident Type
Flight plan parsing failed, navigation log unavailable